Time;durP1;ratioP1;P1;durP2;ratioP2;P2;SDS_P1;SDS_P2;PMS_P1;PMS_P2;Temp;Humidity;BMP_temperature;BMP_pressure;BME280_temperature;BME280_humidity;BME280_pressure;Samples;Min_cycle;Max_cycle;Signal;HPM_P1;HPM_P2
2023/01/10 00:00:51;;;;;;;5.57;1.95;;;;;;;;;;5102869;28;20032;-82
2023/01/10 00:03:18;;;;;;;4.13;1.73;;;;;;;;;;5104351;28;20028;-81
2023/01/10 00:05:44;;;;;;;4.68;1.98;;;;;;;;;;5100973;28;20029;-82
2023/01/10 00:08:13;;;;;;;3.95;1.80;;;;;;;;;;5109512;28;20045;-82
2023/01/10 00:10:39;;;;;;;5.30;1.70;;;;;;;;;;5093922;28;20428;-83
2023/01/10 00:13:24;;;;;;;3.92;1.67;;;;;;;;;;5093953;28;20020;-82
2023/01/10 00:15:51;;;;;;;5.30;2.10;;;;;;;;;;5094986;28;20024;-82
2023/01/10 00:18:17;;;;;;;4.93;1.88;;;;;;;;;;5100703;28;20017;-82
2023/01/10 00:20:46;;;;;;;4.85;2.08;;;;;;;;;;5094568;28;20039;-81
2023/01/10 00:23:12;;;;;;;4.53;1.98;;;;;;;;;;5106719;28;20031;-81
2023/01/10 00:25:38;;;;;;;5.72;1.65;;;;;;;;;;5113332;28;20036;-82
2023/01/10 00:28:20;;;;;;;4.43;1.80;;;;;;;;;;5110466;28;20024;-81
2023/01/10 00:31:05;;;;;;;4.53;2.00;;;;;;;;;;5097844;28;20032;-82
2023/01/10 00:33:32;;;;;;;4.10;1.67;;;;;;;;;;5102104;28;20508;-80
2023/01/10 00:35:58;;;;;;;4.40;1.83;;;;;;;;;;5109604;28;20024;-81
2023/01/10 00:38:24;;;;;;;4.13;1.73;;;;;;;;;;5098010;28;20020;-82
2023/01/10 00:40:50;;;;;;;3.22;1.30;;;;;;;;;;5097648;28;20070;-82
2023/01/10 00:46:01;;;;;;;6.57;1.95;;;;;;;;;;5110939;28;20050;-83
2023/01/10 00:48:28;;;;;;;3.40;1.38;;;;;;;;;;5116412;28;20023;-81
2023/01/10 00:50:54;;;;;;;3.60;1.58;;;;;;;;;;5119112;28;20035;-83
2023/01/10 00:53:20;;;;;;;4.10;1.83;;;;;;;;;;5110131;28;20015;-81
2023/01/10 00:55:46;;;;;;;4.30;2.15;;;;;;;;;;5100438;28;20414;-81
2023/01/10 00:58:13;;;;;;;6.03;2.35;;;;;;;;;;5101031;28;20106;-81
2023/01/10 01:00:39;;;;;;;3.40;1.45;;;;;;;;;;5108569;28;20024;-81
2023/01/10 01:03:05;;;;;;;6.30;1.70;;;;;;;;;;5107114;28;20043;-79
2023/01/10 01:05:31;;;;;;;4.05;1.85;;;;;;;;;;5115812;28;20034;-80
2023/01/10 01:07:57;;;;;;;3.95;1.70;;;;;;;;;;5099081;28;20024;-79
2023/01/10 01:10:26;;;;;;;3.78;1.58;;;;;;;;;;5116433;28;20027;-80
2023/01/10 01:12:56;;;;;;;5.35;1.65;;;;;;;;;;5117715;28;20107;-82
2023/01/10 01:15:23;;;;;;;4.07;1.90;;;;;;;;;;5119652;28;20020;-82
2023/01/10 01:17:49;;;;;;;4.10;1.90;;;;;;;;;;5118518;28;20019;-81
2023/01/10 01:20:16;;;;;;;4.28;2.08;;;;;;;;;;5118591;28;20111;-80
2023/01/10 01:22:42;;;;;;;4.85;2.13;;;;;;;;;;5102747;28;20023;-82
2023/01/10 01:25:08;;;;;;;4.57;2.47;;;;;;;;;;5112522;28;20027;-81
2023/01/10 01:27:34;;;;;;;3.58;1.55;;;;;;;;;;5108033;28;20020;-80
2023/01/10 01:30:00;;;;;;;4.65;2.03;;;;;;;;;;5108380;28;20070;-81
2023/01/10 01:32:27;;;;;;;5.20;1.73;;;;;;;;;;5098544;28;20039;-82
2023/01/10 01:34:53;;;;;;;4.78;2.00;;;;;;;;;;5102971;28;20020;-82
2023/01/10 01:37:19;;;;;;;4.85;1.67;;;;;;;;;;5111469;28;20030;-79
2023/01/10 01:39:45;;;;;;;4.05;1.67;;;;;;;;;;5114162;28;20020;-78
2023/01/10 01:42:28;;;;;;;4.47;1.90;;;;;;;;;;5096982;28;20032;-79
2023/01/10 01:45:10;;;;;;;4.00;1.67;;;;;;;;;;5107893;28;20047;-77
2023/01/10 01:47:42;;;;;;;4.22;1.60;;;;;;;;;;5110320;28;20020;-79
2023/01/10 01:50:16;;;;;;;5.05;1.90;;;;;;;;;;5103889;28;20063;-79
2023/01/10 01:52:42;;;;;;;3.70;1.58;;;;;;;;;;5100817;28;20037;-81
2023/01/10 01:55:09;;;;;;;3.65;1.63;;;;;;;;;;5098243;28;20036;-81
2023/01/10 01:57:36;;;;;;;6.03;1.98;;;;;;;;;;5105419;28;20096;-82
2023/01/10 02:00:03;;;;;;;4.72;1.70;;;;;;;;;;5118196;28;20023;-82
2023/01/10 02:02:34;;;;;;;4.70;1.70;;;;;;;;;;5113253;28;20050;-79
2023/01/10 02:05:03;;;;;;;3.90;1.80;;;;;;;;;;5116015;28;20019;-79
2023/01/10 02:07:31;;;;;;;3.60;1.70;;;;;;;;;;5104207;28;20024;-80
2023/01/10 02:09:59;;;;;;;5.00;1.63;;;;;;;;;;5097690;28;20047;-81
2023/01/10 02:12:25;;;;;;;4.07;1.70;;;;;;;;;;5108022;28;20020;-79
2023/01/10 02:14:52;;;;;;;3.92;1.40;;;;;;;;;;5116848;28;20020;-79
2023/01/10 02:17:18;;;;;;;4.40;1.73;;;;;;;;;;5112230;28;20030;-79
2023/01/10 02:19:52;;;;;;;3.60;1.63;;;;;;;;;;5099182;28;20107;-79
2023/01/10 02:22:24;;;;;;;3.60;1.58;;;;;;;;;;5097154;28;20555;-81
2023/01/10 02:25:09;;;;;;;3.50;1.52;;;;;;;;;;5096183;28;20428;-78
2023/01/10 02:27:48;;;;;;;3.45;1.50;;;;;;;;;;5101339;28;20119;-80
2023/01/10 02:30:32;;;;;;;4.97;1.70;;;;;;;;;;5097328;28;20036;-78
2023/01/10 02:32:58;;;;;;;3.67;1.45;;;;;;;;;;5096335;28;20088;-78
2023/01/10 02:35:37;;;;;;;4.78;1.77;;;;;;;;;;5108009;28;20049;-80
2023/01/10 02:38:06;;;;;;;4.57;1.67;;;;;;;;;;5098949;28;20050;-79
2023/01/10 02:40:44;;;;;;;6.20;1.98;;;;;;;;;;5096649;28;20024;-78
2023/01/10 02:43:15;;;;;;;4.63;1.85;;;;;;;;;;5108976;28;20120;-79
2023/01/10 02:45:55;;;;;;;4.32;1.80;;;;;;;;;;5099042;28;20590;-78
2023/01/10 02:48:21;;;;;;;5.85;2.33;;;;;;;;;;5128310;27;20039;-79
2023/01/10 02:50:53;;;;;;;5.45;1.88;;;;;;;;;;5122598;27;20549;-79
2023/01/10 02:53:24;;;;;;;4.18;1.70;;;;;;;;;;5113154;28;20023;-79
2023/01/10 02:56:09;;;;;;;3.72;1.77;;;;;;;;;;5106727;28;20628;-79
2023/01/10 02:58:44;;;;;;;3.40;1.50;;;;;;;;;;5107729;28;20026;-79
2023/01/10 03:01:19;;;;;;;5.03;2.00;;;;;;;;;;5100913;28;20028;-79
2023/01/10 03:03:51;;;;;;;3.05;1.58;;;;;;;;;;5098030;28;20027;-79
2023/01/10 03:06:17;;;;;;;4.47;1.55;;;;;;;;;;5097970;28;20028;-80
2023/01/10 03:09:04;;;;;;;3.88;1.90;;;;;;;;;;5105941;28;20073;-79
2023/01/10 03:11:41;;;;;;;3.55;1.40;;;;;;;;;;5089245;28;20040;-79
2023/01/10 03:14:36;;;;;;;4.22;1.55;;;;;;;;;;5095536;28;20031;-79
2023/01/10 03:17:06;;;;;;;5.07;1.75;;;;;;;;;;5073628;28;20044;-79
2023/01/10 03:19:34;;;;;;;4.28;1.63;;;;;;;;;;5074516;28;20054;-80
2023/01/10 03:22:02;;;;;;;3.85;1.73;;;;;;;;;;5073926;28;20123;-78
2023/01/10 03:24:36;;;;;;;4.75;2.20;;;;;;;;;;5053295;28;20025;-79
2023/01/10 03:27:20;;;;;;;3.63;1.58;;;;;;;;;;5038338;28;20049;-80
2023/01/10 03:29:52;;;;;;;4.38;1.90;;;;;;;;;;5056544;28;20560;-79
2023/01/10 03:32:20;;;;;;;3.20;1.60;;;;;;;;;;5061527;28;20033;-79
2023/01/10 03:34:47;;;;;;;4.45;1.60;;;;;;;;;;5072843;28;20178;-79
2023/01/10 03:37:15;;;;;;;4.40;1.80;;;;;;;;;;5051436;28;20041;-80
2023/01/10 03:39:44;;;;;;;3.05;1.40;;;;;;;;;;5073023;28;20047;-79
2023/01/10 03:42:13;;;;;;;4.82;1.95;;;;;;;;;;5059303;28;20061;-77
2023/01/10 03:44:49;;;;;;;3.88;1.52;;;;;;;;;;5066277;28;20072;-80
2023/01/10 03:47:18;;;;;;;4.32;1.85;;;;;;;;;;5039400;28;20432;-81
2023/01/10 03:49:47;;;;;;;4.32;1.90;;;;;;;;;;5043150;28;20079;-80
2023/01/10 03:52:15;;;;;;;4.18;1.80;;;;;;;;;;5055397;28;20312;-79
2023/01/10 03:54:44;;;;;;;4.57;1.90;;;;;;;;;;5094321;28;20061;-79
2023/01/10 03:57:23;;;;;;;4.82;2.05;;;;;;;;;;5097385;28;20027;-80
2023/01/10 03:59:52;;;;;;;4.45;2.03;;;;;;;;;;5108901;28;20044;-80
2023/01/10 04:02:18;;;;;;;4.93;1.73;;;;;;;;;;5104936;28;20032;-79
2023/01/10 04:04:44;;;;;;;4.05;1.90;;;;;;;;;;5099774;28;20016;-79
2023/01/10 04:07:10;;;;;;;4.28;2.17;;;;;;;;;;5100358;28;20027;-78
2023/01/10 04:09:36;;;;;;;3.83;1.88;;;;;;;;;;5104478;28;20026;-80
2023/01/10 04:12:02;;;;;;;3.67;1.60;;;;;;;;;;5107543;28;20122;-79
2023/01/10 04:14:28;;;;;;;5.72;2.00;;;;;;;;;;5112852;28;20440;-79
2023/01/10 04:16:54;;;;;;;5.40;1.98;;;;;;;;;;5119110;27;20371;-80
2023/01/10 04:19:21;;;;;;;5.07;2.10;;;;;;;;;;5097699;28;20016;-79
2023/01/10 04:21:47;;;;;;;4.60;2.08;;;;;;;;;;5101504;28;20024;-80
2023/01/10 04:24:13;;;;;;;5.18;2.40;;;;;;;;;;5118562;28;20531;-78
2023/01/10 04:26:39;;;;;;;5.10;1.90;;;;;;;;;;5120175;28;20030;-79
2023/01/10 04:29:05;;;;;;;5.35;2.10;;;;;;;;;;5108214;28;20031;-81
2023/01/10 04:31:31;;;;;;;4.30;1.98;;;;;;;;;;5102501;28;20418;-80
2023/01/10 04:33:57;;;;;;;5.30;2.10;;;;;;;;;;5112275;28;20020;-80
2023/01/10 04:36:23;;;;;;;4.60;1.77;;;;;;;;;;5108455;28;20065;-80
2023/01/10 04:38:49;;;;;;;5.93;2.08;;;;;;;;;;5103122;28;20024;-81
2023/01/10 04:41:15;;;;;;;5.97;2.63;;;;;;;;;;5100980;28;20062;-81
2023/01/10 04:43:41;;;;;;;4.75;1.95;;;;;;;;;;5101968;28;20068;-82
2023/01/10 04:46:07;;;;;;;4.40;2.08;;;;;;;;;;5099484;28;20038;-80
2023/01/10 04:48:35;;;;;;;5.00;2.40;;;;;;;;;;5103042;28;20028;-79
2023/01/10 04:51:01;;;;;;;4.22;1.90;;;;;;;;;;5101591;28;20032;-77
2023/01/10 04:53:27;;;;;;;4.50;2.17;;;;;;;;;;5103292;28;20030;-81
2023/01/10 04:55:53;;;;;;;6.47;2.40;;;;;;;;;;5107843;27;20015;-80
2023/01/10 04:58:19;;;;;;;4.40;2.00;;;;;;;;;;5111466;28;20644;-81
2023/01/10 05:00:45;;;;;;;4.60;2.10;;;;;;;;;;5122399;27;20035;-80
2023/01/10 05:03:11;;;;;;;4.80;2.75;;;;;;;;;;5119219;28;20402;-81
2023/01/10 05:05:37;;;;;;;5.95;2.83;;;;;;;;;;5118962;27;20034;-80
2023/01/10 05:08:03;;;;;;;4.60;1.92;;;;;;;;;;5123401;27;20048;-81
2023/01/10 05:10:29;;;;;;;5.63;2.45;;;;;;;;;;5116964;28;20580;-79
2023/01/10 05:12:55;;;;;;;4.85;2.50;;;;;;;;;;5108841;28;20030;-79
2023/01/10 05:15:22;;;;;;;6.22;2.50;;;;;;;;;;5107162;28;20024;-81
2023/01/10 05:17:49;;;;;;;4.22;2.13;;;;;;;;;;5108939;28;20024;-80
2023/01/10 05:20:16;;;;;;;4.57;2.10;;;;;;;;;;5109317;28;20016;-81
2023/01/10 05:22:42;;;;;;;5.03;2.30;;;;;;;;;;5110106;28;20077;-83
2023/01/10 05:25:08;;;;;;;4.45;2.30;;;;;;;;;;5105799;27;20035;-82
2023/01/10 05:27:34;;;;;;;5.65;2.70;;;;;;;;;;5120718;28;20050;-79
2023/01/10 05:30:00;;;;;;;5.68;2.50;;;;;;;;;;5117426;28;20495;-80
2023/01/10 05:32:29;;;;;;;6.13;2.58;;;;;;;;;;5103320;28;20035;-81
2023/01/10 05:34:55;;;;;;;7.13;2.40;;;;;;;;;;5103068;28;20024;-80
2023/01/10 05:37:21;;;;;;;5.63;2.85;;;;;;;;;;5101182;28;20447;-80
2023/01/10 05:39:47;;;;;;;5.85;3.13;;;;;;;;;;5100684;28;20436;-81
2023/01/10 05:42:13;;;;;;;6.28;2.80;;;;;;;;;;5100533;28;20367;-82
2023/01/10 05:44:39;;;;;;;5.03;2.53;;;;;;;;;;5102955;28;20094;-80
2023/01/10 05:47:05;;;;;;;4.78;2.58;;;;;;;;;;5106414;28;20409;-81
2023/01/10 05:49:31;;;;;;;4.95;2.75;;;;;;;;;;5116813;28;20024;-82
2023/01/10 05:51:57;;;;;;;4.82;2.63;;;;;;;;;;5128042;27;20038;-81
2023/01/10 05:54:23;;;;;;;6.05;2.72;;;;;;;;;;5113402;28;20027;-82
2023/01/10 05:56:49;;;;;;;4.65;2.50;;;;;;;;;;5108618;28;20416;-81
2023/01/10 05:59:15;;;;;;;6.18;3.00;;;;;;;;;;5111055;27;20024;-81
2023/01/10 06:01:41;;;;;;;6.50;3.05;;;;;;;;;;5108324;27;20036;-81
2023/01/10 06:04:07;;;;;;;6.00;2.80;;;;;;;;;;5115191;27;20075;-82
2023/01/10 06:06:33;;;;;;;5.55;2.92;;;;;;;;;;5109254;28;20088;-82
2023/01/10 06:08:59;;;;;;;6.82;3.30;;;;;;;;;;5110074;28;20020;-80
2023/01/10 06:11:28;;;;;;;5.03;2.38;;;;;;;;;;5101082;28;20027;-81
2023/01/10 06:13:55;;;;;;;6.20;2.72;;;;;;;;;;5110905;28;20015;-82
2023/01/10 06:16:21;;;;;;;5.30;2.35;;;;;;;;;;5101881;28;20477;-80
2023/01/10 06:18:47;;;;;;;4.95;2.47;;;;;;;;;;5098901;28;20035;-80
2023/01/10 06:21:13;;;;;;;4.93;2.38;;;;;;;;;;5098561;28;20064;-81
2023/01/10 06:23:39;;;;;;;5.25;2.65;;;;;;;;;;5099384;28;20502;-82
2023/01/10 06:26:05;;;;;;;5.40;2.60;;;;;;;;;;5107643;27;20478;-79
2023/01/10 06:28:31;;;;;;;6.10;3.03;;;;;;;;;;5103081;28;20027;-84
2023/01/10 06:30:57;;;;;;;6.10;3.03;;;;;;;;;;5109691;28;20092;-80
2023/01/10 06:33:23;;;;;;;5.07;2.55;;;;;;;;;;5105627;28;20027;-79
2023/01/10 06:35:49;;;;;;;5.70;2.70;;;;;;;;;;5111004;28;20023;-80
2023/01/10 06:38:15;;;;;;;5.13;2.10;;;;;;;;;;5114752;28;20023;-82
2023/01/10 06:40:42;;;;;;;5.03;2.30;;;;;;;;;;5117000;28;20026;-82
2023/01/10 06:43:08;;;;;;;5.47;2.80;;;;;;;;;;5116791;28;20499;-82
2023/01/10 06:45:34;;;;;;;5.80;2.15;;;;;;;;;;5116602;28;20020;-82
2023/01/10 06:48:00;;;;;;;5.97;2.65;;;;;;;;;;5108167;28;20493;-83
2023/01/10 06:50:26;;;;;;;5.45;2.85;;;;;;;;;;5110120;28;20474;-79
2023/01/10 06:53:37;;;;;;;4.85;2.28;;;;;;;;;;5101752;28;20032;-83
2023/01/10 06:56:41;;;;;;;5.88;2.97;;;;;;;;;;5061779;28;20098;-83
2023/01/10 06:59:08;;;;;;;5.43;2.88;;;;;;;;;;5044615;28;20039;-79
2023/01/10 07:01:40;;;;;;;5.15;2.25;;;;;;;;;;5059498;28;20051;-80
2023/01/10 07:04:06;;;;;;;4.95;2.38;;;;;;;;;;5049102;28;20439;-80
2023/01/10 07:06:36;;;;;;;5.65;2.15;;;;;;;;;;5060774;28;20036;-81
2023/01/10 07:09:02;;;;;;;5.95;2.75;;;;;;;;;;5048958;28;20058;-79
2023/01/10 07:11:28;;;;;;;4.80;2.40;;;;;;;;;;5047888;28;20033;-80
2023/01/10 07:13:54;;;;;;;4.65;2.42;;;;;;;;;;5071010;28;20180;-81
2023/01/10 07:16:20;;;;;;;5.75;2.33;;;;;;;;;;5074567;28;20036;-80
2023/01/10 07:18:46;;;;;;;6.07;2.88;;;;;;;;;;5067073;28;20020;-81
2023/01/10 07:21:12;;;;;;;6.05;2.75;;;;;;;;;;5063125;28;20036;-81
2023/01/10 07:23:39;;;;;;;6.53;2.90;;;;;;;;;;5046492;28;20035;-81
2023/01/10 07:26:06;;;;;;;5.68;2.75;;;;;;;;;;5055456;28;20075;-80
2023/01/10 07:28:35;;;;;;;6.05;2.50;;;;;;;;;;5062201;28;20025;-81
2023/01/10 07:31:02;;;;;;;4.60;2.10;;;;;;;;;;5061259;28;20028;-80
2023/01/10 07:33:29;;;;;;;5.43;3.22;;;;;;;;;;5093983;28;20063;-81
2023/01/10 07:35:55;;;;;;;6.30;3.08;;;;;;;;;;5109948;28;20374;-81
2023/01/10 07:38:21;;;;;;;5.75;2.80;;;;;;;;;;5120162;28;20477;-82
2023/01/10 07:40:47;;;;;;;5.22;2.80;;;;;;;;;;5120773;28;20480;-82
2023/01/10 07:43:13;;;;;;;5.72;2.85;;;;;;;;;;5116232;28;20115;-80
2023/01/10 07:45:39;;;;;;;6.82;3.20;;;;;;;;;;5110621;28;20430;-82
2023/01/10 07:48:06;;;;;;;7.85;3.35;;;;;;;;;;5111726;27;20050;-81
2023/01/10 07:50:33;;;;;;;6.53;3.03;;;;;;;;;;5113230;27;20072;-79
2023/01/10 07:53:00;;;;;;;6.03;2.53;;;;;;;;;;5121717;28;20049;-79
2023/01/10 07:55:26;;;;;;;5.53;2.50;;;;;;;;;;5119607;28;20112;-80
2023/01/10 07:57:52;;;;;;;5.95;2.80;;;;;;;;;;5110612;28;20091;-80
2023/01/10 08:00:19;;;;;;;6.07;2.72;;;;;;;;;;5120119;27;20048;-79
2023/01/10 08:02:45;;;;;;;6.15;2.60;;;;;;;;;;5112305;28;20043;-81
2023/01/10 08:05:11;;;;;;;4.57;2.30;;;;;;;;;;5112192;28;20031;-80
2023/01/10 08:07:37;;;;;;;5.20;3.28;;;;;;;;;;5122152;28;20023;-81
2023/01/10 08:10:04;;;;;;;5.35;2.72;;;;;;;;;;5120157;28;20481;-80
2023/01/10 08:12:31;;;;;;;5.70;2.70;;;;;;;;;;5108248;28;20520;-80
2023/01/10 08:14:57;;;;;;;5.68;2.92;;;;;;;;;;5114833;28;20024;-82
2023/01/10 08:17:23;;;;;;;4.72;2.53;;;;;;;;;;5112913;28;20375;-80
2023/01/10 08:19:49;;;;;;;5.45;2.80;;;;;;;;;;5121782;28;20073;-82
2023/01/10 08:22:15;;;;;;;6.03;2.90;;;;;;;;;;5121050;28;20076;-80
2023/01/10 08:24:41;;;;;;;5.40;2.70;;;;;;;;;;5118363;28;20031;-80
2023/01/10 08:27:07;;;;;;;6.85;2.88;;;;;;;;;;5116279;28;20061;-80
2023/01/10 08:29:33;;;;;;;5.22;2.33;;;;;;;;;;5116824;28;20069;-82
2023/01/10 08:31:59;;;;;;;7.07;2.75;;;;;;;;;;5108455;28;20428;-80
2023/01/10 08:34:26;;;;;;;6.07;3.13;;;;;;;;;;5119612;28;20016;-80
2023/01/10 08:36:52;;;;;;;5.25;2.50;;;;;;;;;;5109506;28;20118;-78
2023/01/10 08:39:21;;;;;;;5.35;2.80;;;;;;;;;;5113251;28;20039;-81
2023/01/10 08:41:47;;;;;;;6.88;2.30;;;;;;;;;;5120763;28;20106;-80
2023/01/10 08:44:14;;;;;;;5.90;2.42;;;;;;;;;;5118430;28;20052;-81
2023/01/10 08:46:40;;;;;;;6.70;2.78;;;;;;;;;;5107510;28;20593;-80
2023/01/10 08:49:06;;;;;;;6.07;3.08;;;;;;;;;;5119708;28;20047;-79
2023/01/10 08:51:32;;;;;;;4.90;2.58;;;;;;;;;;5120057;28;20030;-79
2023/01/10 08:53:58;;;;;;;6.20;2.50;;;;;;;;;;5122008;28;20011;-79
2023/01/10 08:56:25;;;;;;;5.03;2.17;;;;;;;;;;5124301;28;20024;-79
2023/01/10 08:58:51;;;;;;;6.45;3.13;;;;;;;;;;5120980;28;20026;-81
2023/01/10 09:01:17;;;;;;;5.97;2.85;;;;;;;;;;5100861;28;20048;-81
2023/01/10 09:03:43;;;;;;;4.93;2.58;;;;;;;;;;5100571;28;20073;-79
2023/01/10 09:06:09;;;;;;;5.68;2.70;;;;;;;;;;5103107;28;20034;-81
2023/01/10 09:08:36;;;;;;;5.43;2.50;;;;;;;;;;5119429;28;20024;-80
2023/01/10 09:11:02;;;;;;;5.93;2.47;;;;;;;;;;5101792;28;20031;-80
2023/01/10 09:13:28;;;;;;;4.85;2.22;;;;;;;;;;5100403;28;20027;-80
2023/01/10 09:15:55;;;;;;;5.65;3.03;;;;;;;;;;5108484;28;20020;-82
2023/01/10 09:18:22;;;;;;;5.35;2.75;;;;;;;;;;5099481;28;20024;-80
2023/01/10 09:20:49;;;;;;;5.25;2.50;;;;;;;;;;5100313;28;20020;-80
2023/01/10 09:23:17;;;;;;;5.63;2.50;;;;;;;;;;5111028;28;20020;-79
2023/01/10 09:25:44;;;;;;;7.00;3.10;;;;;;;;;;5119853;28;20020;-80
2023/01/10 09:28:10;;;;;;;6.60;3.05;;;;;;;;;;5108590;28;20386;-79
2023/01/10 09:30:36;;;;;;;6.50;2.83;;;;;;;;;;5118911;28;20019;-83
2023/01/10 09:33:03;;;;;;;5.15;2.45;;;;;;;;;;5120337;28;20023;-79
2023/01/10 09:35:29;;;;;;;6.78;2.80;;;;;;;;;;5120014;28;20024;-80
2023/01/10 09:37:57;;;;;;;6.43;2.88;;;;;;;;;;5116515;28;20034;-79
2023/01/10 09:40:46;;;;;;;6.05;2.70;;;;;;;;;;5098449;28;20032;-80
2023/01/10 09:43:31;;;;;;;5.32;2.75;;;;;;;;;;5101059;28;20035;-80
2023/01/10 09:46:03;;;;;;;5.35;2.38;;;;;;;;;;5099545;28;20032;-80
2023/01/10 09:48:35;;;;;;;5.22;2.60;;;;;;;;;;5098002;28;20020;-80
2023/01/10 09:51:08;;;;;;;7.22;3.17;;;;;;;;;;5099811;28;20028;-80
2023/01/10 09:53:36;;;;;;;5.00;2.28;;;;;;;;;;5111487;28;20022;-79
2023/01/10 09:56:04;;;;;;;5.55;2.58;;;;;;;;;;5119648;28;20027;-81
2023/01/10 09:58:31;;;;;;;5.53;2.65;;;;;;;;;;5099074;28;20086;-80
2023/01/10 10:00:58;;;;;;;4.32;1.85;;;;;;;;;;5098101;28;20486;-80
2023/01/10 10:03:36;;;;;;;5.05;2.33;;;;;;;;;;5100191;28;20043;-80
2023/01/10 10:06:02;;;;;;;5.38;2.40;;;;;;;;;;5116642;28;20087;-79
2023/01/10 10:08:29;;;;;;;5.38;2.00;;;;;;;;;;5117961;28;20020;-80
2023/01/10 10:10:57;;;;;;;5.68;2.22;;;;;;;;;;5117594;28;20024;-81
2023/01/10 10:13:33;;;;;;;5.15;2.30;;;;;;;;;;5099191;28;20016;-80
2023/01/10 10:16:17;;;;;;;4.90;2.28;;;;;;;;;;5119361;27;20019;-80
2023/01/10 10:18:46;;;;;;;4.45;2.25;;;;;;;;;;5118818;28;20015;-79
2023/01/10 10:21:21;;;;;;;4.35;1.80;;;;;;;;;;5121486;28;20041;-79
2023/01/10 10:23:56;;;;;;;4.95;2.28;;;;;;;;;;5115540;28;20051;-78
2023/01/10 10:26:38;;;;;;;6.00;2.33;;;;;;;;;;5109365;28;20072;-80
2023/01/10 10:29:18;;;;;;;5.10;2.37;;;;;;;;;;5120972;28;20024;-81
2023/01/10 10:32:07;;;;;;;6.03;2.90;;;;;;;;;;5119192;28;20080;-79
2023/01/10 10:34:39;;;;;;;5.18;2.40;;;;;;;;;;5115263;28;20086;-79
2023/01/10 10:37:11;;;;;;;5.07;2.60;;;;;;;;;;5118712;28;20019;-80
2023/01/10 10:39:57;;;;;;;4.78;2.47;;;;;;;;;;5108726;28;20039;-81
2023/01/10 10:42:27;;;;;;;6.10;2.67;;;;;;;;;;5097715;28;20031;-80
2023/01/10 10:45:05;;;;;;;5.38;2.90;;;;;;;;;;5097668;28;20048;-81
2023/01/10 10:47:33;;;;;;;6.13;3.00;;;;;;;;;;5097574;28;20024;-80
2023/01/10 10:50:10;;;;;;;6.32;2.47;;;;;;;;;;5110632;28;20497;-79
2023/01/10 10:52:37;;;;;;;5.97;2.65;;;;;;;;;;5102786;28;20115;-80
2023/01/10 10:55:04;;;;;;;5.72;2.50;;;;;;;;;;5113253;28;20024;-79
2023/01/10 10:57:32;;;;;;;7.95;2.30;;;;;;;;;;5116737;28;20028;-79
2023/01/10 10:59:59;;;;;;;5.18;2.38;;;;;;;;;;5119991;28;20539;-81
2023/01/10 11:02:27;;;;;;;6.22;2.60;;;;;;;;;;5104954;28;20055;-81
2023/01/10 11:04:56;;;;;;;4.60;2.10;;;;;;;;;;5102540;28;20020;-78
2023/01/10 11:07:23;;;;;;;5.43;2.25;;;;;;;;;;5099431;28;20031;-80
2023/01/10 11:09:57;;;;;;;5.45;2.25;;;;;;;;;;5113968;28;20023;-79
2023/01/10 11:12:27;;;;;;;5.05;2.05;;;;;;;;;;5113377;28;20055;-80
2023/01/10 11:14:53;;;;;;;5.05;2.40;;;;;;;;;;5098633;28;20027;-80
2023/01/10 11:17:20;;;;;;;5.40;2.45;;;;;;;;;;5098195;28;20024;-82
2023/01/10 11:20:02;;;;;;;4.70;2.13;;;;;;;;;;5103976;28;20067;-78
2023/01/10 11:22:30;;;;;;;4.97;2.10;;;;;;;;;;5099708;28;20097;-81
2023/01/10 11:25:01;;;;;;;5.15;2.13;;;;;;;;;;5100249;28;20023;-79
2023/01/10 11:27:31;;;;;;;4.85;2.40;;;;;;;;;;5117094;28;20524;-79
2023/01/10 11:29:58;;;;;;;4.78;2.28;;;;;;;;;;5117629;28;20024;-80
2023/01/10 11:32:31;;;;;;;6.05;2.38;;;;;;;;;;5100598;28;20127;-79
2023/01/10 11:34:58;;;;;;;4.97;2.13;;;;;;;;;;5096163;28;20020;-81
2023/01/10 11:37:32;;;;;;;5.55;2.80;;;;;;;;;;5097406;28;20040;-79
2023/01/10 11:40:07;;;;;;;6.70;2.40;;;;;;;;;;5096718;28;20078;-77
2023/01/10 11:42:33;;;;;;;5.38;2.30;;;;;;;;;;5096269;28;20504;-76
2023/01/10 11:45:32;;;;;;;4.28;1.75;;;;;;;;;;5097265;28;20135;-79
2023/01/10 11:48:07;;;;;;;5.82;2.45;;;;;;;;;;5053674;28;20037;-79
2023/01/10 11:50:44;;;;;;;5.05;2.30;;;;;;;;;;5041556;28;20060;-79
2023/01/10 11:53:27;;;;;;;5.70;2.30;;;;;;;;;;5065332;28;20033;-79
2023/01/10 11:55:53;;;;;;;4.13;1.90;;;;;;;;;;5068525;28;20096;-79
2023/01/10 11:58:19;;;;;;;5.05;2.10;;;;;;;;;;5073823;28;20040;-80
2023/01/10 12:00:47;;;;;;;4.78;2.17;;;;;;;;;;5057094;28;20067;-79
2023/01/10 12:03:17;;;;;;;4.95;2.13;;;;;;;;;;5067315;28;20025;-80
2023/01/10 12:05:50;;;;;;;5.50;2.20;;;;;;;;;;5062222;28;20039;-79
2023/01/10 12:08:43;;;;;;;4.68;2.30;;;;;;;;;;5073758;28;20036;-80
2023/01/10 12:11:09;;;;;;;;;;;;;;;;;;5072267;28;20040;-81
2023/01/10 12:13:46;;;;;;;4.95;2.00;;;;;;;;;;5074327;28;19904;-81
2023/01/10 12:16:17;;;;;;;5.55;2.40;;;;;;;;;;5073272;28;20036;-79
2023/01/10 12:18:43;;;;;;;4.55;2.17;;;;;;;;;;5059672;28;20406;-79
2023/01/10 12:21:11;;;;;;;4.40;2.05;;;;;;;;;;5057535;28;20454;-80
2023/01/10 12:23:40;;;;;;;4.13;2.05;;;;;;;;;;5086795;28;20121;-81
2023/01/10 12:26:07;;;;;;;5.00;2.25;;;;;;;;;;5101183;28;20023;-81
2023/01/10 12:28:35;;;;;;;4.60;2.00;;;;;;;;;;5103229;28;20083;-79
2023/01/10 12:31:03;;;;;;;5.88;2.00;;;;;;;;;;5105091;28;20028;-80
2023/01/10 12:33:33;;;;;;;3.83;1.77;;;;;;;;;;5109244;28;20020;-80
2023/01/10 12:35:59;;;;;;;3.75;1.77;;;;;;;;;;5100478;28;20054;-79
2023/01/10 12:44:34;;;;;;;5.20;1.90;;;;;;;;;;5100557;28;20078;-81
2023/01/10 12:47:05;;;;;;;5.22;2.00;;;;;;;;;;5107621;27;20119;-79
2023/01/10 12:49:50;;;;;;;6.78;2.15;;;;;;;;;;5131497;27;20134;-80
2023/01/10 12:52:27;;;;;;;5.30;2.20;;;;;;;;;;5121591;28;20028;-80
2023/01/10 12:54:53;;;;;;;5.20;1.88;;;;;;;;;;5106987;28;20031;-80
2023/01/10 12:57:31;;;;;;;6.50;1.92;;;;;;;;;;5103171;28;20016;-80
2023/01/10 12:59:58;;;;;;;4.68;2.08;;;;;;;;;;5100542;28;20052;-80
2023/01/10 13:02:26;;;;;;;6.30;2.35;;;;;;;;;;5110566;28;20031;-80
2023/01/10 13:04:56;;;;;;;6.78;2.10;;;;;;;;;;5119262;28;20644;-80
2023/01/10 13:07:24;;;;;;;5.10;2.38;;;;;;;;;;5112388;27;20281;-81
2023/01/10 13:09:50;;;;;;;3.65;1.80;;;;;;;;;;5122333;27;20031;-80
2023/01/10 13:12:21;;;;;;;5.57;2.05;;;;;;;;;;5117998;28;20063;-80
2023/01/10 13:15:03;;;;;;;4.82;2.45;;;;;;;;;;5117135;28;20023;-79
2023/01/10 13:17:29;;;;;;;5.53;2.20;;;;;;;;;;5113690;28;20020;-80
2023/01/10 13:20:14;;;;;;;4.55;2.13;;;;;;;;;;5120831;28;20049;-81
2023/01/10 13:22:40;;;;;;;3.85;1.80;;;;;;;;;;5117776;28;20027;-80
2023/01/10 13:25:18;;;;;;;4.15;1.98;;;;;;;;;;5117902;27;20030;-79
2023/01/10 13:27:44;;;;;;;4.55;1.90;;;;;;;;;;5120325;28;20031;-79
2023/01/10 13:30:28;;;;;;;4.65;2.10;;;;;;;;;;5120008;28;20580;-80
2023/01/10 13:33:03;;;;;;;4.82;2.00;;;;;;;;;;5118021;27;20049;-80
2023/01/10 13:35:36;;;;;;;5.70;2.10;;;;;;;;;;5099686;28;20016;-80
2023/01/10 13:38:03;;;;;;;4.00;1.80;;;;;;;;;;5102625;28;20031;-80
2023/01/10 13:40:29;;;;;;;3.72;1.52;;;;;;;;;;5115252;28;20073;-80
2023/01/10 13:43:20;;;;;;;3.58;1.73;;;;;;;;;;5122137;28;20030;-78
2023/01/10 13:45:46;;;;;;;4.45;2.00;;;;;;;;;;5123473;28;20035;-80
2023/01/10 13:48:26;;;;;;;5.80;2.25;;;;;;;;;;5116953;28;20032;-80
2023/01/10 13:50:57;;;;;;;5.13;2.13;;;;;;;;;;5118100;28;20032;-81
2023/01/10 13:53:32;;;;;;;4.93;2.17;;;;;;;;;;5116944;28;20083;-80
2023/01/10 13:55:58;;;;;;;4.30;2.03;;;;;;;;;;5104854;28;20031;-81
2023/01/10 14:02:27;;;;;;;4.50;1.73;;;;;;;;;;5116482;28;20019;-80
2023/01/10 14:04:21;;;;;;;5.30;2.03;;;;;;;;;;5120012;28;20045;-80
2023/01/10 14:06:52;;;;;;;3.70;1.70;;;;;;;;;;5121407;28;20030;-81
2023/01/10 14:09:19;;;;;;;4.03;1.80;;;;;;;;;;5117643;28;20058;-81
2023/01/10 14:11:45;;;;;;;4.82;2.25;;;;;;;;;;5120284;28;20064;-81
2023/01/10 14:14:20;;;;;;;4.18;1.73;;;;;;;;;;5106947;28;20397;-80
2023/01/10 14:16:48;;;;;;;4.28;1.80;;;;;;;;;;5100583;28;20020;-80
2023/01/10 14:19:32;;;;;;;5.55;1.95;;;;;;;;;;5107358;28;20026;-80
2023/01/10 14:22:00;;;;;;;4.13;1.90;;;;;;;;;;5111258;28;20173;-80
2023/01/10 14:24:40;;;;;;;5.57;2.25;;;;;;;;;;5117465;28;20023;-81
2023/01/10 14:27:06;;;;;;;4.82;1.92;;;;;;;;;;5120145;28;20042;-81
2023/01/10 14:29:33;;;;;;;6.65;1.90;;;;;;;;;;5109985;28;20455;-81
2023/01/10 14:32:00;;;;;;;4.55;1.98;;;;;;;;;;5098749;28;20080;-81
2023/01/10 14:34:27;;;;;;;4.10;1.80;;;;;;;;;;5100691;28;20016;-80
2023/01/10 14:37:01;;;;;;;5.03;2.58;;;;;;;;;;5100048;28;20081;-81
2023/01/10 14:39:28;;;;;;;6.63;2.03;;;;;;;;;;5109894;28;20511;-81
2023/01/10 14:41:59;;;;;;;4.15;1.60;;;;;;;;;;5109132;28;20035;-81
2023/01/10 14:44:51;;;;;;;4.35;1.70;;;;;;;;;;5100626;28;20039;-78
2023/01/10 14:47:34;;;;;;;5.40;2.63;;;;;;;;;;5101593;28;20098;-81
2023/01/10 14:50:01;;;;;;;3.85;1.80;;;;;;;;;;5103602;28;20059;-80
2023/01/10 14:52:27;;;;;;;4.70;1.90;;;;;;;;;;5105360;28;20032;-80
2023/01/10 14:55:09;;;;;;;4.28;2.00;;;;;;;;;;5099325;28;20020;-80
2023/01/10 14:57:35;;;;;;;5.00;1.88;;;;;;;;;;5100607;28;20059;-81
2023/01/10 15:00:03;;;;;;;4.82;2.03;;;;;;;;;;5098702;28;20024;-81
2023/01/10 15:02:29;;;;;;;3.70;1.65;;;;;;;;;;5104162;27;20433;-81
2023/01/10 15:05:00;;;;;;;5.35;2.10;;;;;;;;;;5121814;28;20031;-81
2023/01/10 15:07:27;;;;;;;4.82;1.80;;;;;;;;;;5120282;28;20049;-80
2023/01/10 15:09:56;;;;;;;4.57;2.20;;;;;;;;;;5118598;28;20027;-80